Time;durP1;ratioP1;P1;durP2;ratioP2;P2;SDS_P1;SDS_P2;PMS_P1;PMS_P2;Temp;Humidity;BMP_temperature;BMP_pressure;BME280_temperature;BME280_humidity;BME280_pressure;Samples;Min_cycle;Max_cycle;Signal;HPM_P1;HPM_P2
2021/07/04 00:00:26;;;;;;;8.60;5.50;;;18.50;99.90;;;;;;4994346;28;20762;-51
2021/07/04 00:02:54;;;;;;;6.10;5.53;;;18.40;99.90;;;;;;4992284;28;20984;-51
2021/07/04 00:05:27;;;;;;;8.17;6.13;;;18.50;99.90;;;;;;4994575;28;20255;-52
2021/07/04 00:07:54;;;;;;;6.03;5.43;;;18.50;99.90;;;;;;4993864;28;20577;-52
2021/07/04 00:10:25;;;;;;;7.00;5.77;;;18.60;99.90;;;;;;4994895;28;20640;-52
2021/07/04 00:12:55;;;;;;;5.90;5.30;;;18.60;99.90;;;;;;4990732;28;20210;-52
2021/07/04 00:15:24;;;;;;;6.87;5.97;;;18.50;99.90;;;;;;4994248;28;20223;-51
2021/07/04 00:17:53;;;;;;;8.23;6.27;;;18.50;99.90;;;;;;4992492;28;22232;-51
2021/07/04 00:20:23;;;;;;;6.10;5.50;;;18.40;99.90;;;;;;4992479;28;21043;-52
2021/07/04 00:22:54;;;;;;;6.13;5.03;;;18.50;99.90;;;;;;4990671;28;20313;-52
2021/07/04 00:25:23;;;;;;;6.37;5.77;;;18.40;99.90;;;;;;4993707;28;20282;-51
2021/07/04 00:27:50;;;;;;;6.60;5.10;;;18.50;99.90;;;;;;4995078;28;20288;-51
2021/07/04 00:30:17;;;;;;;6.17;4.93;;;18.50;99.90;;;;;;4994326;28;20285;-51
2021/07/04 00:32:44;;;;;;;7.37;4.90;;;18.60;99.90;;;;;;4991804;28;20283;-52
2021/07/04 00:35:13;;;;;;;5.67;5.07;;;18.60;99.90;;;;;;4993067;28;20327;-52
2021/07/04 00:37:40;;;;;;;5.97;4.83;;;18.60;99.90;;;;;;4992811;28;20681;-52
2021/07/04 00:40:08;;;;;;;6.57;5.37;;;18.60;99.90;;;;;;4993388;28;20223;-52
2021/07/04 00:42:36;;;;;;;6.50;4.87;;;18.60;99.90;;;;;;4994023;28;20347;-52
2021/07/04 00:45:09;;;;;;;6.30;5.07;;;18.60;99.90;;;;;;4992310;28;20319;-53
2021/07/04 00:47:36;;;;;;;6.43;5.03;;;18.60;99.90;;;;;;4990143;28;20747;-52
2021/07/04 00:50:04;;;;;;;9.43;5.53;;;18.50;99.90;;;;;;4992295;28;20200;-52
2021/07/04 00:52:31;;;;;;;6.37;5.60;;;18.50;99.90;;;;;;4991645;28;20303;-52
2021/07/04 00:54:58;;;;;;;8.47;5.27;;;18.50;99.90;;;;;;4992594;28;20318;-52
2021/07/04 00:57:27;;;;;;;5.87;5.17;;;18.50;99.90;;;;;;4993366;28;20645;-52
2021/07/04 00:59:53;;;;;;;5.90;5.30;;;18.50;99.90;;;;;;4993963;28;20286;-53
2021/07/04 01:02:20;;;;;;;6.30;5.20;;;18.50;99.90;;;;;;4989046;28;20390;-52
2021/07/04 01:04:47;;;;;;;6.77;5.47;;;18.50;99.90;;;;;;4991773;28;20370;-52
2021/07/04 01:07:15;;;;;;;7.77;5.70;;;18.50;99.90;;;;;;4992222;28;20269;-52
2021/07/04 01:09:42;;;;;;;7.50;5.43;;;18.40;99.90;;;;;;4995812;28;20292;-51
2021/07/04 01:12:09;;;;;;;8.07;5.80;;;18.40;99.90;;;;;;4990987;28;20237;-52
2021/07/04 01:14:36;;;;;;;5.90;5.27;;;18.40;99.90;;;;;;4992837;28;20308;-52
2021/07/04 01:17:03;;;;;;;6.60;5.67;;;18.40;99.90;;;;;;4990358;28;20312;-51
2021/07/04 01:19:30;;;;;;;6.40;5.50;;;18.30;99.90;;;;;;4991433;28;20300;-51
2021/07/04 01:21:58;;;;;;;7.70;5.97;;;18.30;99.90;;;;;;4992729;28;20497;-52
2021/07/04 01:24:25;;;;;;;5.83;4.90;;;18.30;99.90;;;;;;4993864;28;20210;-52
2021/07/04 01:26:52;;;;;;;7.43;5.80;;;18.30;99.90;;;;;;4992772;28;20355;-52
2021/07/04 01:29:20;;;;;;;7.23;5.77;;;18.20;99.90;;;;;;4993238;28;20839;-51
2021/07/04 01:31:47;;;;;;;6.13;5.37;;;18.20;99.90;;;;;;4994489;28;20688;-52
2021/07/04 01:34:14;;;;;;;6.07;5.30;;;18.30;99.90;;;;;;4996133;28;20202;-52
2021/07/04 01:36:41;;;;;;;7.50;5.93;;;18.20;99.90;;;;;;4995368;28;20298;-52
2021/07/04 01:39:09;;;;;;;7.37;5.17;;;18.20;99.90;;;;;;4993570;28;20320;-52
2021/07/04 01:41:36;;;;;;;7.77;6.00;;;18.20;99.90;;;;;;4989725;28;20387;-52
2021/07/04 01:44:03;;;;;;;6.67;5.77;;;18.20;99.90;;;;;;4996129;28;20323;-52
2021/07/04 01:46:30;;;;;;;6.77;5.53;;;18.20;99.90;;;;;;4997629;28;20269;-52
2021/07/04 01:48:56;;;;;;;6.60;4.90;;;18.20;99.90;;;;;;4995668;28;20545;-52
2021/07/04 01:51:23;;;;;;;6.20;5.60;;;18.30;99.90;;;;;;4996507;28;21542;-52
2021/07/04 01:53:50;;;;;;;6.97;5.77;;;18.20;99.90;;;;;;4996599;28;20332;-53
2021/07/04 01:56:17;;;;;;;10.43;5.83;;;18.20;99.90;;;;;;4999481;28;20702;-52
2021/07/04 01:58:43;;;;;;;8.00;5.53;;;18.20;99.90;;;;;;4998924;28;20271;-52
2021/07/04 02:01:10;;;;;;;7.03;5.53;;;18.30;99.90;;;;;;4996728;28;20311;-52
2021/07/04 02:03:37;;;;;;;7.57;5.13;;;18.30;99.90;;;;;;4996040;28;20236;-52
2021/07/04 02:06:04;;;;;;;7.27;5.80;;;18.30;99.90;;;;;;4999312;28;20243;-52
2021/07/04 02:08:31;;;;;;;6.77;5.63;;;18.30;99.90;;;;;;4997114;28;20289;-52
2021/07/04 02:10:58;;;;;;;6.10;5.50;;;18.30;99.90;;;;;;4995945;28;22182;-52
2021/07/04 02:13:25;;;;;;;7.17;5.70;;;18.20;99.90;;;;;;4997014;28;21446;-52
2021/07/04 02:15:52;;;;;;;7.87;6.00;;;18.20;99.90;;;;;;4997111;28;20207;-52
2021/07/04 02:18:19;;;;;;;7.43;6.03;;;18.30;99.90;;;;;;4993967;28;20602;-52
2021/07/04 02:20:48;;;;;;;7.27;6.10;;;18.30;99.90;;;;;;4996555;28;20267;-52
2021/07/04 02:23:16;;;;;;;7.13;5.53;;;18.20;99.90;;;;;;4997031;28;20692;-52
2021/07/04 02:25:46;;;;;;;5.83;5.00;;;18.30;99.90;;;;;;4995694;28;20281;-51
2021/07/04 02:28:16;;;;;;;5.90;5.30;;;18.30;99.90;;;;;;4997214;28;20969;-51
2021/07/04 02:30:43;;;;;;;6.57;5.90;;;18.20;99.90;;;;;;4997056;28;20236;-51
2021/07/04 02:33:13;;;;;;;8.30;6.10;;;18.20;99.90;;;;;;4993481;28;20302;-51
2021/07/04 02:35:47;;;;;;;6.07;5.30;;;18.00;99.90;;;;;;4996106;28;20349;-52
2021/07/04 02:38:14;;;;;;;5.73;5.13;;;18.00;99.90;;;;;;4996503;28;20239;-51
2021/07/04 02:40:42;;;;;;;5.47;4.53;;;17.80;99.90;;;;;;4995792;28;21304;-52
2021/07/04 02:43:11;;;;;;;7.13;5.37;;;18.00;99.90;;;;;;4994734;28;20573;-52
2021/07/04 02:45:39;;;;;;;7.10;5.40;;;17.90;99.90;;;;;;4996021;28;20616;-52
2021/07/04 02:48:08;;;;;;;6.20;5.60;;;17.90;99.90;;;;;;4994752;28;20229;-52
2021/07/04 02:50:36;;;;;;;6.60;5.80;;;17.90;99.90;;;;;;4993985;28;20333;-52
2021/07/04 02:53:04;;;;;;;7.80;6.10;;;17.80;99.90;;;;;;4993747;28;20213;-52
2021/07/04 02:55:31;;;;;;;7.93;6.20;;;17.80;99.90;;;;;;4996810;28;20280;-52
2021/07/04 02:57:58;;;;;;;7.07;6.10;;;17.80;99.90;;;;;;4995170;28;20237;-53
2021/07/04 03:00:26;;;;;;;6.67;5.97;;;17.80;99.90;;;;;;4996128;28;20636;-52
2021/07/04 03:02:54;;;;;;;7.67;5.87;;;17.80;99.90;;;;;;4993544;28;20235;-52
2021/07/04 03:05:22;;;;;;;8.10;6.37;;;17.90;99.90;;;;;;4995629;28;20233;-52
2021/07/04 03:07:49;;;;;;;6.80;5.80;;;18.10;99.90;;;;;;4993303;28;20225;-52
2021/07/04 03:10:19;;;;;;;7.17;5.80;;;18.10;99.90;;;;;;4996113;28;20200;-52
2021/07/04 03:12:46;;;;;;;8.43;6.53;;;18.10;99.90;;;;;;4995125;28;20241;-52
2021/07/04 03:15:14;;;;;;;8.03;6.27;;;18.10;99.90;;;;;;4997022;28;20207;-52
2021/07/04 03:17:42;;;;;;;7.03;6.33;;;18.20;99.90;;;;;;4993215;28;20774;-51
2021/07/04 03:20:10;;;;;;;11.53;6.83;;;18.20;99.90;;;;;;4997517;28;20309;-52
2021/07/04 03:22:37;;;;;;;10.17;6.80;;;18.20;99.90;;;;;;4993303;28;20254;-52
2021/07/04 03:25:06;;;;;;;7.40;6.60;;;18.20;99.90;;;;;;4997956;28;20202;-52
2021/07/04 03:27:34;;;;;;;9.23;6.13;;;18.10;99.90;;;;;;4996126;28;20772;-52
2021/07/04 03:30:02;;;;;;;9.13;6.37;;;18.10;99.90;;;;;;4994870;28;20272;-52
2021/07/04 03:32:29;;;;;;;8.17;6.90;;;18.10;99.90;;;;;;4993631;28;20361;-52
2021/07/04 03:34:55;;;;;;;9.63;7.60;;;18.10;99.90;;;;;;4993541;28;20290;-52
2021/07/04 03:37:22;;;;;;;9.13;6.57;;;18.00;99.90;;;;;;4993024;28;21263;-52
2021/07/04 03:39:49;;;;;;;7.53;6.67;;;17.90;99.90;;;;;;4995260;28;20880;-52
2021/07/04 03:42:16;;;;;;;12.00;6.77;;;18.00;99.90;;;;;;4994469;28;20231;-51
2021/07/04 03:44:43;;;;;;;11.07;7.47;;;18.00;99.90;;;;;;4994077;28;20232;-52
2021/07/04 03:47:10;;;;;;;10.40;7.23;;;18.10;99.90;;;;;;4993679;28;20299;-52
2021/07/04 03:49:37;;;;;;;8.10;7.20;;;18.10;99.90;;;;;;4995569;28;20208;-52
2021/07/04 03:52:04;;;;;;;9.13;7.33;;;18.00;99.90;;;;;;4991045;28;20331;-52
2021/07/04 03:54:31;;;;;;;11.20;7.73;;;17.90;99.90;;;;;;4992846;28;20294;-51
2021/07/04 03:56:58;;;;;;;9.63;7.63;;;18.00;99.90;;;;;;4995332;28;20318;-52
2021/07/04 03:59:25;;;;;;;8.63;7.13;;;18.00;99.90;;;;;;4994192;28;20301;-52
2021/07/04 04:01:51;;;;;;;9.87;7.33;;;18.00;99.90;;;;;;4997225;28;20310;-52
2021/07/04 04:04:18;;;;;;;13.00;7.30;;;18.00;99.90;;;;;;4992029;28;20684;-52
2021/07/04 04:06:45;;;;;;;8.83;7.43;;;18.10;99.90;;;;;;4995019;28;20225;-52
2021/07/04 04:09:12;;;;;;;13.73;8.63;;;18.10;99.90;;;;;;4993416;28;21386;-52
2021/07/04 04:11:39;;;;;;;10.60;8.20;;;18.10;99.90;;;;;;4993986;28;20434;-52
2021/07/04 04:14:05;;;;;;;12.13;8.77;;;18.10;99.90;;;;;;4992464;28;20227;-52
2021/07/04 04:16:32;;;;;;;14.90;9.13;;;18.10;99.90;;;;;;4992190;28;20236;-52
2021/07/04 04:18:59;;;;;;;10.57;8.23;;;18.10;99.90;;;;;;4992936;28;20768;-52
2021/07/04 04:21:26;;;;;;;15.93;10.07;;;18.10;99.90;;;;;;4993449;28;20308;-53
2021/07/04 04:23:53;;;;;;;11.73;8.70;;;18.10;99.90;;;;;;4992476;28;20314;-52
2021/07/04 04:26:19;;;;;;;13.27;9.53;;;18.10;99.90;;;;;;4993813;28;20244;-52
2021/07/04 04:28:46;;;;;;;10.23;8.20;;;18.20;99.90;;;;;;4992401;28;20279;-51
2021/07/04 04:31:13;;;;;;;13.00;9.47;;;18.30;99.90;;;;;;4991737;28;21900;-52
2021/07/04 04:33:40;;;;;;;14.60;9.67;;;18.20;99.90;;;;;;4991125;28;20205;-52
2021/07/04 04:36:07;;;;;;;14.37;10.97;;;18.20;99.90;;;;;;4992003;28;20471;-52
2021/07/04 04:38:34;;;;;;;18.63;11.10;;;18.30;99.90;;;;;;4993732;28;20376;-52
2021/07/04 04:41:01;;;;;;;20.83;12.63;;;18.40;99.90;;;;;;4993346;28;20303;-52
2021/07/04 04:43:28;;;;;;;22.27;13.80;;;18.40;99.90;;;;;;4994727;28;20211;-52
2021/07/04 04:45:55;;;;;;;23.17;13.67;;;18.30;99.90;;;;;;4993297;28;20303;-52
2021/07/04 04:48:22;;;;;;;23.40;14.47;;;18.40;99.90;;;;;;4992071;28;20701;-52
2021/07/04 04:50:48;;;;;;;20.20;12.80;;;18.40;99.90;;;;;;4992411;28;20341;-52
2021/07/04 04:53:15;;;;;;;22.40;13.83;;;18.40;99.90;;;;;;4992131;28;20216;-52
2021/07/04 04:55:42;;;;;;;22.27;14.03;;;18.30;99.90;;;;;;4993180;28;20205;-53
2021/07/04 04:58:09;;;;;;;20.37;13.50;;;18.30;99.90;;;;;;4993304;28;20238;-52
2021/07/04 05:00:36;;;;;;;27.87;14.80;;;18.20;99.90;;;;;;4993592;28;20235;-52
2021/07/04 05:03:06;;;;;;;25.70;15.53;;;18.20;99.90;;;;;;4991939;28;20206;-52
2021/07/04 05:05:36;;;;;;;22.80;14.10;;;18.20;99.90;;;;;;4993772;28;20269;-52
2021/07/04 05:08:03;;;;;;;23.70;14.67;;;18.30;99.90;;;;;;4993923;28;20249;-52
2021/07/04 05:10:31;;;;;;;23.13;14.87;;;18.40;99.90;;;;;;4994455;28;20640;-52
2021/07/04 05:12:58;;;;;;;25.73;15.57;;;18.30;99.90;;;;;;4994709;28;20218;-51
2021/07/04 05:15:25;;;;;;;28.20;15.63;;;18.20;99.90;;;;;;4993698;28;20301;-52
2021/07/04 05:17:52;;;;;;;31.07;16.93;;;18.10;99.90;;;;;;4990993;28;20262;-52
2021/07/04 05:20:19;;;;;;;26.37;15.77;;;18.20;99.90;;;;;;4993387;28;20202;-51
2021/07/04 05:22:46;;;;;;;26.57;16.17;;;18.40;99.90;;;;;;4992724;28;20210;-52
2021/07/04 05:25:13;;;;;;;30.13;17.37;;;18.40;99.90;;;;;;4995640;28;20223;-52
2021/07/04 05:27:41;;;;;;;30.30;17.23;;;18.20;99.90;;;;;;4995761;28;20252;-52
2021/07/04 05:30:08;;;;;;;28.30;17.40;;;18.40;99.90;;;;;;4996970;28;20648;-52
2021/07/04 05:32:35;;;;;;;29.70;16.40;;;18.50;99.90;;;;;;4991836;28;20421;-52
2021/07/04 05:35:03;;;;;;;33.63;17.87;;;18.50;99.90;;;;;;4988190;28;20231;-52
2021/07/04 05:37:29;;;;;;;30.57;17.90;;;18.30;99.90;;;;;;4991022;28;20516;-52
2021/07/04 05:39:59;;;;;;;30.63;18.37;;;18.30;99.90;;;;;;4993719;28;20275;-52
2021/07/04 05:42:25;;;;;;;34.07;19.37;;;18.30;99.90;;;;;;4993175;28;20228;-52
2021/07/04 05:44:52;;;;;;;29.30;17.83;;;18.40;99.90;;;;;;4994155;28;20306;-52
2021/07/04 05:47:19;;;;;;;37.47;21.33;;;18.30;99.90;;;;;;4990330;28;20421;-52
2021/07/04 05:49:46;;;;;;;37.43;20.60;;;18.40;99.90;;;;;;4992241;28;20211;-52
2021/07/04 05:52:13;;;;;;;42.47;23.43;;;18.50;99.90;;;;;;4992593;28;20291;-52
2021/07/04 05:54:39;;;;;;;38.27;21.67;;;18.50;99.90;;;;;;4991279;28;20613;-52
2021/07/04 05:57:06;;;;;;;33.67;21.23;;;18.50;99.90;;;;;;4991692;28;20311;-52
2021/07/04 05:59:34;;;;;;;39.27;23.33;;;18.60;99.90;;;;;;4993959;28;20212;-52
2021/07/04 06:02:02;;;;;;;39.60;23.00;;;18.70;99.90;;;;;;4986998;28;20206;-52
2021/07/04 06:04:29;;;;;;;38.47;20.53;;;18.40;99.90;;;;;;4991674;28;20236;-53
2021/07/04 06:06:56;;;;;;;41.43;22.43;;;18.60;99.90;;;;;;4993236;28;20667;-53
2021/07/04 06:09:22;;;;;;;37.43;20.93;;;18.50;99.90;;;;;;4990547;28;20257;-53
2021/07/04 06:11:51;;;;;;;37.60;21.23;;;18.50;99.90;;;;;;4990845;28;20294;-53
2021/07/04 06:14:18;;;;;;;35.37;20.47;;;18.40;99.90;;;;;;4992063;28;20212;-53
2021/07/04 06:16:45;;;;;;;36.10;21.77;;;18.50;99.90;;;;;;4992589;28;20757;-53
2021/07/04 06:19:13;;;;;;;39.00;21.10;;;18.50;99.90;;;;;;4992369;28;20623;-52
2021/07/04 06:21:40;;;;;;;40.87;21.73;;;18.60;99.90;;;;;;4991990;28;20311;-53
2021/07/04 06:24:07;;;;;;;37.70;21.87;;;18.70;99.90;;;;;;4991983;28;20649;-52
2021/07/04 06:26:35;;;;;;;36.67;19.93;;;18.60;99.90;;;;;;4993365;28;20399;-52
2021/07/04 06:29:02;;;;;;;39.17;21.27;;;18.70;99.90;;;;;;4995939;28;20304;-52
2021/07/04 06:31:29;;;;;;;38.00;20.33;;;18.60;99.90;;;;;;4994422;28;20262;-53
2021/07/04 06:33:57;;;;;;;40.37;21.73;;;18.50;99.90;;;;;;4992859;28;20304;-53
2021/07/04 06:36:25;;;;;;;37.67;21.90;;;18.50;99.90;;;;;;4995190;28;20272;-53
2021/07/04 06:38:53;;;;;;;39.60;21.47;;;18.50;99.90;;;;;;4997542;28;20312;-53
2021/07/04 06:41:20;;;;;;;39.53;20.63;;;18.60;99.90;;;;;;4995519;28;20917;-52
2021/07/04 06:43:47;;;;;;;40.33;21.67;;;18.60;99.90;;;;;;4995304;28;20850;-53
2021/07/04 06:46:14;;;;;;;40.70;22.40;;;18.50;99.90;;;;;;4993628;28;20567;-53
2021/07/04 06:48:41;;;;;;;39.73;21.30;;;18.60;99.90;;;;;;4991882;28;20227;-53
2021/07/04 06:51:08;;;;;;;37.90;21.47;;;18.70;99.90;;;;;;4992566;28;20979;-53
2021/07/04 06:53:36;;;;;;;38.07;22.03;;;18.60;99.90;;;;;;4991343;28;20296;-53
2021/07/04 06:56:04;;;;;;;41.53;23.87;;;18.90;99.90;;;;;;4994502;28;20747;-52
2021/07/04 06:58:31;;;;;;;36.27;22.23;;;19.20;99.90;;;;;;4997298;28;20300;-52
2021/07/04 07:00:58;;;;;;;41.20;22.80;;;19.20;99.90;;;;;;4994453;28;20300;-53
2021/07/04 07:03:25;;;;;;;36.87;21.93;;;19.30;99.90;;;;;;4994112;28;20210;-53
2021/07/04 07:05:51;;;;;;;38.67;22.00;;;19.20;99.90;;;;;;4992942;28;20300;-53
2021/07/04 07:08:18;;;;;;;36.60;21.00;;;19.00;99.90;;;;;;4992178;28;20276;-53
2021/07/04 07:10:45;;;;;;;32.70;19.63;;;18.90;99.90;;;;;;4992152;28;20764;-53
2021/07/04 07:13:12;;;;;;;31.47;19.63;;;19.00;99.90;;;;;;4992757;28;20202;-53
2021/07/04 07:15:39;;;;;;;35.27;20.40;;;19.20;99.90;;;;;;4993221;28;20661;-53
2021/07/04 07:18:06;;;;;;;36.17;20.90;;;19.40;99.90;;;;;;4990061;28;20208;-52
2021/07/04 07:20:35;;;;;;;30.93;19.80;;;19.50;99.90;;;;;;4991658;28;20749;-53
2021/07/04 07:23:05;;;;;;;35.30;20.13;;;19.50;99.90;;;;;;4991292;28;20209;-52
2021/07/04 07:25:32;;;;;;;36.30;21.13;;;19.60;99.90;;;;;;4992593;28;20321;-51
2021/07/04 07:28:00;;;;;;;32.23;18.87;;;19.30;99.90;;;;;;4990651;28;20256;-51
2021/07/04 07:30:31;;;;;;;33.13;18.73;;;19.10;99.90;;;;;;4996467;28;20458;-51
2021/07/04 07:32:58;;;;;;;28.70;17.47;;;19.10;99.90;;;;;;4992121;28;20219;-51
2021/07/04 07:35:25;;;;;;;25.67;16.23;;;20.10;99.90;;;;;;4993531;28;20305;-51
2021/07/04 07:37:53;;;;;;;25.93;15.53;;;21.50;99.90;;;;;;4991902;28;20229;-51
2021/07/04 07:40:20;;;;;;;24.50;14.50;;;22.60;99.90;;;;;;4992864;28;20257;-51
2021/07/04 07:42:46;;;;;;;25.57;14.17;;;21.90;99.90;;;;;;4991722;28;20849;-51
2021/07/04 07:45:15;;;;;;;23.33;14.20;;;21.90;99.90;;;;;;4992789;28;20292;-51
2021/07/04 07:47:42;;;;;;;18.97;13.77;;;22.10;99.90;;;;;;4991013;28;20279;-50
2021/07/04 07:50:10;;;;;;;19.43;12.50;;;22.20;99.90;;;;;;4990307;28;20329;-51
2021/07/04 07:52:37;;;;;;;18.90;11.87;;;21.80;99.90;;;;;;4991693;28;20284;-51
2021/07/04 07:55:05;;;;;;;21.83;12.97;;;21.30;99.90;;;;;;4990272;28;20808;-51
2021/07/04 07:57:32;;;;;;;16.40;10.50;;;21.20;99.90;;;;;;4993880;28;20616;-52
2021/07/04 07:59:59;;;;;;;14.60;9.83;;;22.90;99.90;;;;;;4988631;28;20292;-50
2021/07/04 08:02:26;;;;;;;17.97;12.47;;;24.40;68.30;;;;;;4991889;28;20245;-50
2021/07/04 08:04:53;;;;;;;19.83;12.13;;;23.20;99.90;;;;;;4991840;28;20395;-51
2021/07/04 08:07:20;;;;;;;16.27;11.77;;;22.90;99.90;;;;;;4993762;28;20333;-51
2021/07/04 08:09:47;;;;;;;16.13;10.00;;;23.20;99.90;;;;;;4994026;28;20251;-50
2021/07/04 08:12:13;;;;;;;13.37;8.63;;;22.90;99.90;;;;;;4996314;28;20268;-51
2021/07/04 08:14:40;;;;;;;10.80;7.43;;;24.10;1.00;;;;;;4995650;28;20716;-51
2021/07/04 08:17:08;;;;;;;11.63;7.33;;;23.90;99.90;;;;;;4992324;28;20237;-51
2021/07/04 08:19:35;;;;;;;12.30;7.77;;;24.60;1.00;;;;;;4992345;28;20997;-51
2021/07/04 08:22:02;;;;;;;10.93;7.60;;;24.10;1.00;;;;;;4991939;28;20229;-51
2021/07/04 08:24:30;;;;;;;12.53;7.77;;;23.70;40.90;;;;;;4993138;28;20331;-51
2021/07/04 08:26:57;;;;;;;11.03;7.23;;;23.50;42.10;;;;;;4993692;28;20323;-50
2021/07/04 08:29:24;;;;;;;10.43;7.03;;;22.90;99.90;;;;;;4993008;28;20569;-51
2021/07/04 08:31:50;;;;;;;12.73;7.70;;;23.40;99.90;;;;;;4992112;28;20257;-51
2021/07/04 08:34:17;;;;;;;9.00;6.40;;;23.00;99.90;;;;;;4992180;28;20201;-52
2021/07/04 08:36:44;;;;;;;7.20;6.07;;;23.30;96.00;;;;;;4995586;28;20215;-52
2021/07/04 08:39:11;;;;;;;9.00;6.30;;;22.40;99.90;;;;;;4993394;28;20305;-52
2021/07/04 08:41:38;;;;;;;11.30;7.13;;;22.50;99.90;;;;;;4994689;28;20241;-52
2021/07/04 08:44:07;;;;;;;10.23;7.07;;;22.40;99.90;;;;;;4994719;28;20869;-50
2021/07/04 08:46:45;;;;;;;8.73;6.00;;;22.10;99.90;;;;;;4989461;28;20368;-51
2021/07/04 08:49:13;;;;;;;8.00;6.00;;;22.40;99.90;;;;;;4993687;28;20239;-51
2021/07/04 08:51:41;;;;;;;9.30;6.03;;;23.10;89.50;;;;;;4992175;28;20600;-51
2021/07/04 08:54:08;;;;;;;8.30;5.83;;;23.10;69.60;;;;;;4989134;28;20207;-51
2021/07/04 08:56:35;;;;;;;7.83;5.63;;;23.00;51.20;;;;;;4994933;28;20198;-51
2021/07/04 08:59:03;;;;;;;10.97;7.40;;;23.10;99.90;;;;;;4994005;28;20276;-52
2021/07/04 09:01:31;;;;;;;9.27;6.37;;;23.10;99.90;;;;;;4994195;28;20333;-51
2021/07/04 09:04:12;;;;;;;9.27;6.70;;;24.70;3.30;;;;;;4993262;28;20213;-51
2021/07/04 09:06:43;;;;;;;6.20;4.30;;;24.10;1.00;;;;;;4994400;28;20659;-52
2021/07/04 09:09:30;;;;;;;8.57;4.87;;;24.40;99.90;;;;;;4991239;28;20252;-51
2021/07/04 09:12:05;;;;;;;7.50;5.00;;;24.40;1.00;;;;;;4995238;28;20283;-50
2021/07/04 09:14:37;;;;;;;8.07;5.40;;;24.20;1.00;;;;;;4991839;28;20530;-51
2021/07/04 09:17:32;;;;;;;8.10;5.27;;;23.20;1.00;;;;;;4990448;28;20232;-52
2021/07/04 09:20:00;;;;;;;6.67;4.70;;;24.00;1.00;;;;;;4993363;28;20325;-51
2021/07/04 09:22:28;;;;;;;8.70;5.77;;;24.20;1.00;;;;;;4992534;28;20302;-51
2021/07/04 09:25:09;;;;;;;8.13;5.90;;;23.30;1.00;;;;;;4992194;28;20252;-51
2021/07/04 09:27:37;;;;;;;8.20;5.37;;;23.90;1.00;;;;;;4995939;28;20300;-52
2021/07/04 09:30:09;;;;;;;11.27;6.17;;;25.50;1.00;;;;;;4994273;28;20201;-51
2021/07/04 09:32:48;;;;;;;10.93;6.47;;;25.10;17.50;;;;;;4988809;28;20589;-51
2021/07/04 09:35:19;;;;;;;9.03;5.87;;;24.20;99.90;;;;;;4995588;28;20205;-51
2021/07/04 09:37:51;;;;;;;8.53;5.33;;;23.50;1.00;;;;;;4994289;28;20219;-51
2021/07/04 09:40:20;;;;;;;11.97;6.00;;;23.90;1.00;;;;;;4992655;28;20271;-52
2021/07/04 09:43:08;;;;;;;10.03;7.67;;;24.40;1.00;;;;;;4994523;28;20684;-51
2021/07/04 09:45:48;;;;;;;7.63;5.73;;;23.60;1.00;;;;;;4990959;28;20289;-51
2021/07/04 09:48:49;;;;;;;9.03;5.70;;;24.20;1.00;;;;;;4986844;28;20683;-51
2021/07/04 09:51:19;;;;;;;7.00;4.57;;;24.50;1.00;;;;;;4991900;28;20315;-51
2021/07/04 09:53:49;;;;;;;5.97;4.10;;;24.80;1.00;;;;;;4992214;28;20197;-50
2021/07/04 09:56:21;;;;;;;3.40;2.33;;;26.20;1.00;;;;;;4994470;28;20293;-50
2021/07/04 09:58:50;;;;;;;6.03;2.73;;;25.70;99.90;;;;;;4996433;28;20442;-51
2021/07/04 10:01:35;;;;;;;3.17;2.00;;;25.20;1.00;;;;;;4991008;28;20216;-51
2021/07/04 10:04:05;;;;;;;3.03;2.30;;;25.20;1.00;;;;;;4995112;28;20754;-51
2021/07/04 10:06:45;;;;;;;4.13;3.03;;;25.40;99.90;;;;;;4998566;28;20608;-51
2021/07/04 10:09:12;;;;;;;3.80;3.23;;;24.60;1.00;;;;;;4995267;28;20248;-51
2021/07/04 10:11:39;;;;;;;5.23;3.70;;;23.90;1.00;;;;;;4997131;28;20238;-50
2021/07/04 10:14:06;;;;;;;4.47;3.40;;;24.40;1.00;;;;;;4996812;28;20590;-51
2021/07/04 10:16:33;;;;;;;6.27;3.90;;;24.50;1.00;;;;;;4999443;28;20236;-51
2021/07/04 10:19:03;;;;;;;6.60;3.93;;;24.40;99.90;;;;;;4997427;28;20220;-51
2021/07/04 10:21:34;;;;;;;7.50;4.43;;;24.40;1.00;;;;;;4998121;28;20218;-51
2021/07/04 10:24:02;;;;;;;6.70;4.47;;;24.00;99.90;;;;;;4980724;28;20220;-51
2021/07/04 10:26:34;;;;;;;8.17;4.30;;;24.50;1.00;;;;;;5001356;28;20267;-51
2021/07/04 10:29:03;;;;;;;8.47;5.97;;;25.40;1.00;;;;;;4998127;28;20250;-51
2021/07/04 10:31:31;;;;;;;7.60;6.17;;;24.90;99.90;;;;;;4995310;28;20249;-51
2021/07/04 10:34:06;;;;;;;9.27;5.67;;;24.40;2.00;;;;;;4998309;28;20201;-50
2021/07/04 10:36:59;;;;;;;8.93;4.80;;;23.90;1.00;;;;;;4996594;28;20289;-51
2021/07/04 10:39:32;;;;;;;7.73;5.30;;;24.30;1.00;;;;;;4995269;28;20206;-52
2021/07/04 10:42:07;;;;;;;10.60;5.00;;;24.20;1.00;;;;;;4996561;28;20245;-50
2021/07/04 10:44:43;;;;;;;5.70;4.67;;;24.00;99.90;;;;;;4997574;28;20706;-51
2021/07/04 10:47:15;;;;;;;6.13;4.70;;;23.50;99.90;;;;;;4991708;28;20274;-51
2021/07/04 10:49:45;;;;;;;5.53;4.30;;;23.40;1.00;;;;;;4996313;28;20234;-51
2021/07/04 10:52:37;;;;;;;7.53;4.90;;;23.70;1.00;;;;;;4996380;28;20270;-51
2021/07/04 10:55:08;;;;;;;6.70;4.23;;;23.50;1.00;;;;;;4996498;28;20280;-51
2021/07/04 10:57:51;;;;;;;5.90;4.50;;;23.30;1.00;;;;;;4995557;28;20244;-51
2021/07/04 11:00:50;;;;;;;6.10;4.40;;;23.70;1.00;;;;;;4997583;28;20217;-51
2021/07/04 11:03:30;;;;;;;8.37;4.90;;;23.80;99.90;;;;;;4995391;28;20198;-51
2021/07/04 11:05:57;;;;;;;6.57;4.83;;;23.70;1.00;;;;;;4996366;28;20239;-52
2021/07/04 11:08:30;;;;;;;9.27;4.73;;;24.20;99.90;;;;;;4993203;28;20322;-51
2021/07/04 11:11:07;;;;;;;6.37;4.80;;;24.40;1.00;;;;;;4994494;28;20262;-52
2021/07/04 11:13:42;;;;;;;6.90;4.30;;;24.30;1.00;;;;;;4992811;28;20238;-51
2021/07/04 11:16:18;;;;;;;7.13;4.90;;;24.50;1.00;;;;;;4993739;28;20669;-51
2021/07/04 11:18:49;;;;;;;7.40;5.30;;;24.30;1.00;;;;;;4993670;28;20428;-51
2021/07/04 11:21:19;;;;;;;6.00;4.70;;;24.40;1.00;;;;;;4992086;28;20249;-51
2021/07/04 11:24:06;;;;;;;7.87;5.13;;;24.30;99.90;;;;;;4986052;28;20342;-51
2021/07/04 11:26:33;;;;;;;7.90;5.20;;;23.70;1.00;;;;;;4994199;28;20697;-51
2021/07/04 11:29:10;;;;;;;5.70;4.57;;;23.50;1.00;;;;;;4995020;28;20225;-51
2021/07/04 11:31:40;;;;;;;6.20;4.10;;;23.70;99.90;;;;;;4994745;28;20296;-51
2021/07/04 11:34:07;;;;;;;6.23;4.10;;;24.00;99.90;;;;;;4994423;28;20263;-51
2021/07/04 11:36:34;;;;;;;6.00;4.83;;;24.20;1.00;;;;;;4993679;28;20212;-51
2021/07/04 11:39:06;;;;;;;7.17;4.40;;;23.70;99.90;;;;;;4992563;28;20742;-51
2021/07/04 11:41:39;;;;;;;6.07;3.87;;;23.70;99.90;;;;;;4996429;28;20337;-53
2021/07/04 11:44:14;;;;;;;3.83;3.30;;;24.00;1.00;;;;;;4994578;28;20207;-51
2021/07/04 11:46:43;;;;;;;3.80;2.70;;;24.20;40.40;;;;;;4994863;28;20211;-51
2021/07/04 11:49:18;;;;;;;6.43;3.53;;;24.40;52.20;;;;;;4993782;28;20214;-51
2021/07/04 11:51:51;;;;;;;4.63;3.50;;;24.30;99.90;;;;;;4997214;28;20274;-51
2021/07/04 11:54:30;;;;;;;7.07;4.77;;;23.80;1.00;;;;;;4995811;28;20489;-51
2021/07/04 12:00:04;;;;;;;6.23;4.73;;;24.50;1.00;;;;;;4996429;28;20228;-51
2021/07/04 12:02:33;;;;;;;7.33;5.03;;;24.70;1.00;;;;;;4995906;28;20799;-50
2021/07/04 12:05:10;;;;;;;7.87;5.10;;;24.70;1.00;;;;;;4992584;28;20240;-51
2021/07/04 12:07:37;;;;;;;7.53;5.37;;;24.40;1.00;;;;;;4996289;28;20240;-51
2021/07/04 12:10:05;;;;;;;7.23;5.23;;;23.70;1.00;;;;;;4981778;28;20582;-51
2021/07/04 12:12:33;;;;;;;6.57;4.90;;;23.50;1.00;;;;;;4995572;28;20332;-51
2021/07/04 12:15:07;;;;;;;6.27;4.73;;;23.60;1.00;;;;;;4994245;28;20207;-51
2021/07/04 12:17:42;;;;;;;5.97;4.70;;;23.70;1.00;;;;;;4994158;28;20328;-51
2021/07/04 12:20:15;;;;;;;5.37;4.40;;;23.70;1.00;;;;;;4997661;28;20672;-51
2021/07/04 12:22:52;;;;;;;4.70;4.10;;;23.80;1.00;;;;;;4994832;28;20207;-52
2021/07/04 12:25:21;;;;;;;7.27;4.83;;;24.30;27.60;;;;;;4994353;28;20210;-51
2021/07/04 12:27:51;;;;;;;6.00;4.20;;;24.30;99.90;;;;;;4993890;28;20248;-51
2021/07/04 12:30:32;;;;;;;5.40;4.43;;;24.80;1.00;;;;;;4996401;28;20291;-50
2021/07/04 12:33:11;;;;;;;5.10;3.97;;;24.50;21.30;;;;;;4991497;28;20298;-51
2021/07/04 12:35:46;;;;;;;7.53;3.60;;;24.60;1.00;;;;;;4995150;28;20253;-51
2021/07/04 12:38:19;;;;;;;4.43;3.57;;;24.50;1.00;;;;;;4991338;28;20701;-51
2021/07/04 12:40:57;;;;;;;5.87;4.70;;;24.90;99.90;;;;;;4992072;28;20296;-51
2021/07/04 12:43:37;;;;;;;5.43;4.20;;;24.40;1.00;;;;;;4988701;28;20226;-50
2021/07/04 12:46:18;;;;;;;5.80;4.60;;;24.40;72.20;;;;;;4989583;28;20287;-51
2021/07/04 12:48:51;;;;;;;6.57;4.40;;;24.40;1.00;;;;;;4988080;28;20234;-51
2021/07/04 12:51:38;;;;;;;6.13;3.83;;;24.80;1.00;;;;;;4989871;28;20325;-51
2021/07/04 12:54:30;;;;;;;7.00;4.90;;;24.80;1.00;;;;;;4990733;28;20606;-51
2021/07/04 12:56:57;;;;;;;5.80;4.23;;;24.30;1.00;;;;;;4995687;28;20616;-51